Time;durP1;ratioP1;P1;durP2;ratioP2;P2;SDS_P1;SDS_P2;PMS_P1;PMS_P2;Temp;Humidity;BMP_temperature;BMP_pressure;BME280_temperature;BME280_humidity;BME280_pressure;Samples;Min_cycle;Max_cycle;Signal;HPM_P1;HPM_P2
2023/12/17 00:01:33;;;;;;;33.90;24.27;;;;;;;;;;5013092;28;20438;-83
2023/12/17 00:04:02;;;;;;;35.40;24.83;;;;;;;;;;5013579;28;20509;-83
2023/12/17 00:06:28;;;;;;;31.87;22.10;;;;;;;;;;5014023;28;20896;-83
2023/12/17 00:08:54;;;;;;;34.70;20.13;;;;;;;;;;5013951;28;20418;-84
2023/12/17 00:11:20;;;;;;;29.80;20.23;;;;;;;;;;5014201;28;20755;-83
2023/12/17 00:13:46;;;;;;;29.83;18.53;;;;;;;;;;5013004;28;21005;-84
2023/12/17 00:16:11;;;;;;;25.80;17.07;;;;;;;;;;5013920;28;20446;-84
2023/12/17 00:18:37;;;;;;;26.57;16.90;;;;;;;;;;5014217;28;20251;-84
2023/12/17 00:21:03;;;;;;;25.73;17.80;;;;;;;;;;5012790;28;20427;-86
2023/12/17 00:23:29;;;;;;;23.20;15.27;;;;;;;;;;5013606;28;20477;-85
2023/12/17 00:25:55;;;;;;;22.00;14.20;;;;;;;;;;5013644;28;20454;-84
2023/12/17 00:28:21;;;;;;;24.07;15.07;;;;;;;;;;5013878;28;20419;-85
2023/12/17 00:30:47;;;;;;;22.57;14.13;;;;;;;;;;5013706;28;20919;-86
2023/12/17 00:33:13;;;;;;;23.80;14.63;;;;;;;;;;5013956;28;20414;-86
2023/12/17 00:35:39;;;;;;;26.80;15.40;;;;;;;;;;5013431;28;20468;-84
2023/12/17 00:38:05;;;;;;;28.70;16.17;;;;;;;;;;5013484;28;20415;-84
2023/12/17 00:40:31;;;;;;;25.23;12.93;;;;;;;;;;5013795;28;20931;-85
2023/12/17 00:42:56;;;;;;;21.60;13.83;;;;;;;;;;5013659;28;20505;-86
2023/12/17 00:45:23;;;;;;;23.40;14.83;;;;;;;;;;5009247;28;20431;-86
2023/12/17 00:47:49;;;;;;;22.00;14.67;;;;;;;;;;5012680;28;20419;-85
2023/12/17 00:50:15;;;;;;;23.63;14.63;;;;;;;;;;5013615;28;20513;-83
2023/12/17 00:52:40;;;;;;;21.90;13.23;;;;;;;;;;5013250;28;20464;-81
2023/12/17 00:55:07;;;;;;;19.77;12.23;;;;;;;;;;5013200;28;20411;-81
2023/12/17 00:57:33;;;;;;;22.03;13.60;;;;;;;;;;5013524;28;20417;-82
2023/12/17 00:59:59;;;;;;;20.80;13.00;;;;;;;;;;5013421;28;20412;-83
2023/12/17 01:02:25;;;;;;;19.93;11.63;;;;;;;;;;4973179;28;20430;-83
2023/12/17 01:04:54;;;;;;;20.03;11.77;;;;;;;;;;5013246;28;20544;-84
2023/12/17 01:07:19;;;;;;;20.10;11.97;;;;;;;;;;5012592;28;20541;-82
2023/12/17 01:09:45;;;;;;;17.43;11.50;;;;;;;;;;5013368;28;20498;-82
2023/12/17 01:12:11;;;;;;;15.90;10.03;;;;;;;;;;5028488;28;20437;-83
2023/12/17 01:14:37;;;;;;;16.93;11.20;;;;;;;;;;5013233;28;20509;-84
2023/12/17 01:17:04;;;;;;;16.80;11.67;;;;;;;;;;5012839;28;20429;-83
2023/12/17 01:19:30;;;;;;;17.47;11.37;;;;;;;;;;5013055;28;20437;-83
2023/12/17 01:21:57;;;;;;;20.17;11.77;;;;;;;;;;5013121;28;20427;-83
2023/12/17 01:24:23;;;;;;;18.30;11.13;;;;;;;;;;5012646;28;20486;-84
2023/12/17 01:26:49;;;;;;;14.57;9.13;;;;;;;;;;5027715;28;20463;-81
2023/12/17 01:29:15;;;;;;;16.20;12.30;;;;;;;;;;5012947;28;20919;-87
2023/12/17 01:31:41;;;;;;;16.47;12.30;;;;;;;;;;5013043;28;20410;-82
2023/12/17 01:34:07;;;;;;;15.33;10.27;;;;;;;;;;5013045;28;20419;-82
2023/12/17 01:36:36;;;;;;;17.17;10.60;;;;;;;;;;5012765;28;20442;-82
2023/12/17 01:39:03;;;;;;;15.00;11.17;;;;;;;;;;5012642;28;20910;-83
2023/12/17 01:41:32;;;;;;;17.07;9.50;;;;;;;;;;5012836;28;20430;-81
2023/12/17 01:44:04;;;;;;;12.00;8.20;;;;;;;;;;5012858;28;20462;-81
2023/12/17 01:46:30;;;;;;;16.30;9.10;;;;;;;;;;5012280;28;20770;-81
2023/12/17 01:48:55;;;;;;;15.10;9.43;;;;;;;;;;5012812;28;20501;-82
2023/12/17 01:51:21;;;;;;;12.97;8.47;;;;;;;;;;5012667;28;20542;-82
2023/12/17 01:53:47;;;;;;;12.17;8.57;;;;;;;;;;5012530;28;20433;-82
2023/12/17 01:56:15;;;;;;;16.40;10.37;;;;;;;;;;5012367;28;20423;-82
2023/12/17 01:58:41;;;;;;;14.10;9.50;;;;;;;;;;5012335;28;20423;-81
2023/12/17 02:01:07;;;;;;;18.40;9.07;;;;;;;;;;5011939;28;20427;-82
2023/12/17 02:03:33;;;;;;;13.70;8.97;;;;;;;;;;5012552;28;20992;-81
2023/12/17 02:06:00;;;;;;;12.23;8.30;;;;;;;;;;5012584;28;20410;-81
2023/12/17 02:08:26;;;;;;;12.70;7.90;;;;;;;;;;5011202;28;20475;-82
2023/12/17 02:10:53;;;;;;;12.60;8.40;;;;;;;;;;5012540;28;20414;-82
2023/12/17 02:13:19;;;;;;;11.13;8.40;;;;;;;;;;5012444;28;20416;-81
2023/12/17 02:15:45;;;;;;;13.47;8.63;;;;;;;;;;5012467;28;20414;-82
2023/12/17 02:18:11;;;;;;;11.60;8.17;;;;;;;;;;5012301;28;20414;-82
2023/12/17 02:20:37;;;;;;;13.03;9.17;;;;;;;;;;5009944;28;20453;-82
2023/12/17 02:23:04;;;;;;;13.27;8.70;;;;;;;;;;5011266;28;20410;-82
2023/12/17 02:25:31;;;;;;;11.73;7.53;;;;;;;;;;5012203;28;20516;-81
2023/12/17 02:28:01;;;;;;;11.40;7.90;;;;;;;;;;5014206;28;20414;-82
2023/12/17 02:30:30;;;;;;;13.90;6.90;;;;;;;;;;5016128;28;20420;-80
2023/12/17 02:32:56;;;;;;;10.43;6.90;;;;;;;;;;5015744;28;20419;-83
2023/12/17 02:35:22;;;;;;;9.53;6.33;;;;;;;;;;5015770;28;21083;-82
2023/12/17 02:37:49;;;;;;;11.60;5.47;;;;;;;;;;5015375;28;20471;-82
2023/12/17 02:40:16;;;;;;;8.40;5.37;;;;;;;;;;5015672;28;20420;-81
2023/12/17 02:42:42;;;;;;;8.50;5.83;;;;;;;;;;5015984;28;20897;-82
2023/12/17 02:45:12;;;;;;;8.57;5.30;;;;;;;;;;5015806;28;20473;-83
2023/12/17 02:47:38;;;;;;;11.07;6.47;;;;;;;;;;5015591;28;20464;-82
2023/12/17 02:50:07;;;;;;;9.80;5.57;;;;;;;;;;5015679;28;20411;-80
2023/12/17 02:52:33;;;;;;;9.27;5.60;;;;;;;;;;5015462;28;20505;-82
2023/12/17 02:54:59;;;;;;;7.80;5.13;;;;;;;;;;5015712;28;20511;-81
2023/12/17 02:57:25;;;;;;;9.47;5.97;;;;;;;;;;5015438;28;20175;-82
2023/12/17 02:59:53;;;;;;;10.77;6.00;;;;;;;;;;5015543;28;20411;-82
2023/12/17 03:02:20;;;;;;;12.30;5.70;;;;;;;;;;4976445;28;20442;-81
2023/12/17 03:04:46;;;;;;;7.43;5.00;;;;;;;;;;5015433;28;20560;-82
2023/12/17 03:07:14;;;;;;;9.57;5.93;;;;;;;;;;5014875;28;20590;-81
2023/12/17 03:09:41;;;;;;;9.10;5.80;;;;;;;;;;5030592;28;20501;-81
2023/12/17 03:12:07;;;;;;;10.47;6.03;;;;;;;;;;5014492;28;20445;-81
2023/12/17 03:14:33;;;;;;;8.43;5.50;;;;;;;;;;5014584;28;20514;-81
2023/12/17 03:16:58;;;;;;;11.03;6.30;;;;;;;;;;5013634;28;20450;-83
2023/12/17 03:19:24;;;;;;;11.23;7.00;;;;;;;;;;5014381;28;20450;-81
2023/12/17 03:21:50;;;;;;;14.20;6.47;;;;;;;;;;5014083;28;20424;-82
2023/12/17 03:24:16;;;;;;;10.20;5.63;;;;;;;;;;5014411;28;20467;-81
2023/12/17 03:26:42;;;;;;;13.20;6.47;;;;;;;;;;5015037;28;20578;-82
2023/12/17 03:29:08;;;;;;;11.20;5.87;;;;;;;;;;5014591;28;20411;-81
2023/12/17 03:31:34;;;;;;;12.50;6.83;;;;;;;;;;5014556;28;20776;-81
2023/12/17 03:34:01;;;;;;;8.77;5.60;;;;;;;;;;5014541;28;20415;-81
2023/12/17 03:36:27;;;;;;;8.03;4.97;;;;;;;;;;5013103;28;20177;-83
2023/12/17 03:38:56;;;;;;;7.40;5.33;;;;;;;;;;5011017;28;20506;-82
2023/12/17 03:41:23;;;;;;;8.40;5.87;;;;;;;;;;5012774;28;20448;-81
2023/12/17 03:43:53;;;;;;;7.60;5.67;;;;;;;;;;5013689;28;20478;-82
2023/12/17 03:46:19;;;;;;;9.33;5.30;;;;;;;;;;5012618;28;20920;-80
2023/12/17 03:48:45;;;;;;;6.67;4.63;;;;;;;;;;5013748;28;20460;-83
2023/12/17 03:51:11;;;;;;;9.97;5.20;;;;;;;;;;5014880;28;20443;-82
2023/12/17 03:53:37;;;;;;;10.57;4.37;;;;;;;;;;5014645;28;20778;-82
2023/12/17 03:56:03;;;;;;;6.30;3.50;;;;;;;;;;5014945;28;20505;-81
2023/12/17 03:58:30;;;;;;;9.83;4.33;;;;;;;;;;5014886;28;20430;-81
2023/12/17 04:00:56;;;;;;;10.90;5.60;;;;;;;;;;5014932;28;20903;-81
2023/12/17 04:03:22;;;;;;;7.63;4.30;;;;;;;;;;5030092;28;20473;-81
2023/12/17 04:05:48;;;;;;;7.83;4.30;;;;;;;;;;5030055;28;20534;-81
2023/12/17 04:08:14;;;;;;;6.70;4.40;;;;;;;;;;5014376;28;20417;-81
2023/12/17 04:10:40;;;;;;;7.70;4.40;;;;;;;;;;5029996;28;20427;-81
2023/12/17 04:13:06;;;;;;;8.53;4.00;;;;;;;;;;5014647;28;20175;-82
2023/12/17 04:15:32;;;;;;;9.30;5.40;;;;;;;;;;5014636;28;20178;-81
2023/12/17 04:17:58;;;;;;;9.97;5.00;;;;;;;;;;5029717;28;21086;-82
2023/12/17 04:20:23;;;;;;;6.07;3.43;;;;;;;;;;5014516;28;20426;-82
2023/12/17 04:22:49;;;;;;;5.33;4.00;;;;;;;;;;5014010;28;20398;-82
2023/12/17 04:25:15;;;;;;;9.00;4.87;;;;;;;;;;5014173;28;20247;-81
2023/12/17 04:27:41;;;;;;;10.37;3.73;;;;;;;;;;5014374;28;20173;-81
2023/12/17 04:30:07;;;;;;;6.63;4.30;;;;;;;;;;5014409;28;20416;-81
2023/12/17 04:32:33;;;;;;;6.20;4.10;;;;;;;;;;5014396;28;20745;-82
2023/12/17 04:34:59;;;;;;;7.13;3.80;;;;;;;;;;5014287;28;20485;-81
2023/12/17 04:37:25;;;;;;;6.27;4.60;;;;;;;;;;5013857;28;20183;-81
2023/12/17 04:39:51;;;;;;;8.20;4.00;;;;;;;;;;5014229;28;20418;-82
2023/12/17 04:42:17;;;;;;;6.33;3.70;;;;;;;;;;5014202;28;20202;-81
2023/12/17 04:44:43;;;;;;;6.73;4.97;;;;;;;;;;5014073;28;20480;-81
2023/12/17 04:47:09;;;;;;;7.57;4.23;;;;;;;;;;5014186;28;20406;-81
2023/12/17 04:49:38;;;;;;;8.47;4.53;;;;;;;;;;5013782;28;20743;-82
2023/12/17 04:52:04;;;;;;;8.23;4.60;;;;;;;;;;5013536;28;20421;-82
2023/12/17 04:54:30;;;;;;;5.97;4.17;;;;;;;;;;5014001;28;20735;-81
2023/12/17 04:56:56;;;;;;;9.50;3.63;;;;;;;;;;5029143;28;20414;-82
2023/12/17 04:59:22;;;;;;;5.90;3.70;;;;;;;;;;5013876;28;20786;-82
2023/12/17 05:01:48;;;;;;;5.60;3.70;;;;;;;;;;5013856;28;20398;-81
2023/12/17 05:04:16;;;;;;;10.97;4.50;;;;;;;;;;5013632;28;21012;-82
2023/12/17 05:06:42;;;;;;;8.63;4.23;;;;;;;;;;5013445;28;20490;-81
2023/12/17 05:09:07;;;;;;;7.80;4.97;;;;;;;;;;5013744;28;20839;-82
2023/12/17 05:11:33;;;;;;;6.53;3.70;;;;;;;;;;5013621;28;20437;-81
2023/12/17 05:13:59;;;;;;;8.50;4.50;;;;;;;;;;5013611;28;20469;-82
2023/12/17 05:16:26;;;;;;;7.27;4.47;;;;;;;;;;5013628;28;20410;-81
2023/12/17 05:18:51;;;;;;;7.20;3.80;;;;;;;;;;5013533;28;20418;-81
2023/12/17 05:21:17;;;;;;;10.93;3.80;;;;;;;;;;5028712;28;20499;-81
2023/12/17 05:23:43;;;;;;;8.23;3.47;;;;;;;;;;5013079;28;20463;-81
2023/12/17 05:26:09;;;;;;;7.73;3.90;;;;;;;;;;5013329;28;20223;-81
2023/12/17 05:28:37;;;;;;;7.00;4.10;;;;;;;;;;5013487;28;20403;-82
2023/12/17 05:31:03;;;;;;;7.97;4.00;;;;;;;;;;5013408;28;20506;-81
2023/12/17 05:33:29;;;;;;;9.20;3.60;;;;;;;;;;5013352;28;20421;-81
2023/12/17 05:35:55;;;;;;;7.30;3.87;;;;;;;;;;5013308;28;20415;-83
2023/12/17 05:38:21;;;;;;;6.10;3.70;;;;;;;;;;5028205;28;20424;-82
2023/12/17 05:40:50;;;;;;;6.00;4.10;;;;;;;;;;5013347;28;20478;-82
2023/12/17 05:43:16;;;;;;;6.00;3.83;;;;;;;;;;5013191;28;20411;-83
2023/12/17 05:45:42;;;;;;;7.70;3.80;;;;;;;;;;4973935;28;20464;-83
2023/12/17 05:48:08;;;;;;;8.47;4.30;;;;;;;;;;5013236;28;20778;-82
2023/12/17 05:50:34;;;;;;;7.93;3.97;;;;;;;;;;5013170;28;20436;-83
2023/12/17 05:53:00;;;;;;;4.50;2.70;;;;;;;;;;5012844;28;20423;-83
2023/12/17 05:55:26;;;;;;;8.33;3.47;;;;;;;;;;5013182;28;20758;-82
2023/12/17 05:57:55;;;;;;;5.30;3.47;;;;;;;;;;5013158;28;20481;-82
2023/12/17 06:00:21;;;;;;;6.87;4.00;;;;;;;;;;5028380;28;20419;-82
2023/12/17 06:02:47;;;;;;;5.80;3.67;;;;;;;;;;5015036;28;20588;-82
2023/12/17 06:05:13;;;;;;;6.23;3.80;;;;;;;;;;5017037;28;20534;-82
2023/12/17 06:07:38;;;;;;;12.57;5.20;;;;;;;;;;5016755;28;20914;-83
2023/12/17 06:10:05;;;;;;;9.77;4.43;;;;;;;;;;5016993;28;20447;-82
2023/12/17 06:12:31;;;;;;;3.93;2.67;;;;;;;;;;5017011;28;20462;-82
2023/12/17 06:14:56;;;;;;;5.77;3.93;;;;;;;;;;5016862;28;20414;-82
2023/12/17 06:17:22;;;;;;;3.57;2.93;;;;;;;;;;5016823;28;20410;-83
2023/12/17 06:19:48;;;;;;;7.10;4.03;;;;;;;;;;5016794;28;20426;-84
2023/12/17 06:22:16;;;;;;;7.50;3.80;;;;;;;;;;5016412;28;20181;-83
2023/12/17 06:24:42;;;;;;;5.23;3.20;;;;;;;;;;5016629;28;20478;-81
2023/12/17 06:27:14;;;;;;;5.77;2.90;;;;;;;;;;5016489;28;20455;-81
2023/12/17 06:29:40;;;;;;;5.30;2.63;;;;;;;;;;5016577;28;20447;-81
2023/12/17 06:32:07;;;;;;;5.07;3.70;;;;;;;;;;5015379;28;20414;-84
2023/12/17 06:34:36;;;;;;;5.50;3.20;;;;;;;;;;5016705;28;20426;-82
2023/12/17 06:37:02;;;;;;;5.93;2.77;;;;;;;;;;5031274;28;20418;-83
2023/12/17 06:39:28;;;;;;;5.33;3.40;;;;;;;;;;5031476;28;20438;-83
2023/12/17 06:41:54;;;;;;;6.67;2.40;;;;;;;;;;5016574;28;20410;-83
2023/12/17 06:44:21;;;;;;;6.40;3.40;;;;;;;;;;5016213;28;20477;-83
2023/12/17 06:46:53;;;;;;;4.27;3.47;;;;;;;;;;5015282;28;20412;-82
2023/12/17 06:49:22;;;;;;;6.10;2.70;;;;;;;;;;5031718;28;20427;-84
2023/12/17 06:51:48;;;;;;;5.27;2.73;;;;;;;;;;5031066;28;20423;-83
2023/12/17 06:54:14;;;;;;;5.83;3.00;;;;;;;;;;5031496;28;20785;-83
2023/12/17 06:56:42;;;;;;;8.67;3.83;;;;;;;;;;5016309;28;20413;-83
2023/12/17 06:59:08;;;;;;;8.07;3.30;;;;;;;;;;5016201;28;20420;-83
2023/12/17 07:01:35;;;;;;;8.30;3.23;;;;;;;;;;5016278;28;20415;-83
2023/12/17 07:04:01;;;;;;;6.60;3.33;;;;;;;;;;4980829;28;20474;-83
2023/12/17 07:06:27;;;;;;;11.23;2.80;;;;;;;;;;5014345;28;20437;-82
2023/12/17 07:08:53;;;;;;;5.77;3.37;;;;;;;;;;5015970;28;20410;-82
2023/12/17 07:11:19;;;;;;;6.23;3.50;;;;;;;;;;5015819;28;20415;-82
2023/12/17 07:13:45;;;;;;;5.33;3.90;;;;;;;;;;5015533;28;20497;-82
2023/12/17 07:16:28;;;;;;;7.63;4.30;;;;;;;;;;5015761;28;20507;-81
2023/12/17 07:18:54;;;;;;;10.43;3.80;;;;;;;;;;5015563;28;20421;-81
2023/12/17 07:21:20;;;;;;;6.17;4.27;;;;;;;;;;5015279;28;20400;-81
2023/12/17 07:23:46;;;;;;;6.97;4.20;;;;;;;;;;5015153;28;20475;-82
2023/12/17 07:26:12;;;;;;;8.77;4.20;;;;;;;;;;5014634;28;20993;-82
2023/12/17 07:28:38;;;;;;;6.20;4.53;;;;;;;;;;5014924;28;20498;-81
2023/12/17 07:31:16;;;;;;;6.43;4.00;;;;;;;;;;5015018;28;20439;-83
2023/12/17 07:33:42;;;;;;;7.60;4.63;;;;;;;;;;5013368;28;20763;-83
2023/12/17 07:36:15;;;;;;;10.27;4.37;;;;;;;;;;5014640;28;20423;-82
2023/12/17 07:38:44;;;;;;;8.83;4.10;;;;;;;;;;5015386;28;20435;-83
2023/12/17 07:41:13;;;;;;;6.90;4.70;;;;;;;;;;5015504;28;20442;-83
2023/12/17 07:43:39;;;;;;;6.23;4.77;;;;;;;;;;5015287;28;21002;-83
2023/12/17 07:46:05;;;;;;;7.57;4.80;;;;;;;;;;5015332;28;20430;-83
2023/12/17 07:48:37;;;;;;;5.87;4.67;;;;;;;;;;5015043;28;20911;-84
2023/12/17 07:51:03;;;;;;;7.67;4.60;;;;;;;;;;5015269;28;20415;-84
2023/12/17 07:53:30;;;;;;;9.17;5.90;;;;;;;;;;5030158;28;20511;-82
2023/12/17 07:55:59;;;;;;;7.47;6.30;;;;;;;;;;5015271;28;20422;-84
2023/12/17 07:58:25;;;;;;;10.23;6.33;;;;;;;;;;5030354;28;20407;-84
2023/12/17 08:00:52;;;;;;;8.60;5.80;;;;;;;;;;5015238;28;20797;-83
2023/12/17 08:03:18;;;;;;;8.53;5.47;;;;;;;;;;4973735;28;20661;-82
2023/12/17 08:05:44;;;;;;;9.27;6.23;;;;;;;;;;5014912;28;20508;-81
2023/12/17 08:08:10;;;;;;;15.77;6.70;;;;;;;;;;5014503;28;20408;-82
2023/12/17 08:10:35;;;;;;;7.50;6.00;;;;;;;;;;5014711;28;20844;-82
2023/12/17 08:13:01;;;;;;;8.20;5.80;;;;;;;;;;5014705;28;20176;-82
2023/12/17 08:15:28;;;;;;;10.30;6.40;;;;;;;;;;5013566;28;20418;-82
2023/12/17 08:17:53;;;;;;;11.17;6.53;;;;;;;;;;5014712;28;20478;-82
2023/12/17 08:20:19;;;;;;;10.55;6.32;;;;;;;;;;5013546;28;20415;-83
2023/12/17 08:22:45;;;;;;;8.10;6.00;;;;;;;;;;5014189;28;20179;-81
2023/12/17 08:25:12;;;;;;;8.33;6.00;;;;;;;;;;5013571;28;21002;-82
2023/12/17 08:27:38;;;;;;;10.03;5.20;;;;;;;;;;5014496;28;20425;-81
2023/12/17 08:30:04;;;;;;;8.73;5.97;;;;;;;;;;5029628;28;21016;-82
2023/12/17 08:32:32;;;;;;;9.00;5.07;;;;;;;;;;5014291;28;20474;-81
2023/12/17 08:35:01;;;;;;;9.60;5.33;;;;;;;;;;5014305;28;20899;-82
2023/12/17 08:37:29;;;;;;;10.90;6.80;;;;;;;;;;5013867;28;20419;-82
2023/12/17 08:39:55;;;;;;;10.57;5.57;;;;;;;;;;5014169;28;20438;-82
2023/12/17 08:42:21;;;;;;;9.10;5.63;;;;;;;;;;5014214;28;20417;-82
2023/12/17 08:44:47;;;;;;;8.83;5.73;;;;;;;;;;5014078;28;20472;-82
2023/12/17 08:47:14;;;;;;;7.50;5.60;;;;;;;;;;5029318;28;20419;-82
2023/12/17 08:49:39;;;;;;;7.50;5.40;;;;;;;;;;5014045;28;20819;-83
2023/12/17 08:52:06;;;;;;;6.07;5.17;;;;;;;;;;5013617;28;20496;-81
2023/12/17 08:54:32;;;;;;;12.43;6.17;;;;;;;;;;5013987;28;20427;-82
2023/12/17 08:56:58;;;;;;;14.43;8.13;;;;;;;;;;5013970;28;20415;-82
2023/12/17 08:59:23;;;;;;;8.37;6.70;;;;;;;;;;5013999;28;20416;-82
2023/12/17 09:01:49;;;;;;;12.17;7.40;;;;;;;;;;5013974;28;20231;-82
2023/12/17 09:04:17;;;;;;;10.43;8.60;;;;;;;;;;5013840;28;20209;-82
2023/12/17 09:06:46;;;;;;;11.63;9.50;;;;;;;;;;5013262;28;20496;-83
2023/12/17 09:09:13;;;;;;;10.30;8.50;;;;;;;;;;5013784;28;20505;-83
2023/12/17 09:11:39;;;;;;;11.70;9.40;;;;;;;;;;5013711;28;20471;-82
2023/12/17 09:14:07;;;;;;;14.33;10.37;;;;;;;;;;5013722;28;20756;-82
2023/12/17 09:16:32;;;;;;;11.80;9.80;;;;;;;;;;5013635;28;20434;-83
2023/12/17 09:18:59;;;;;;;18.57;11.60;;;;;;;;;;5013608;28;20798;-81
2023/12/17 09:21:25;;;;;;;13.23;10.27;;;;;;;;;;5013386;28;20455;-84
2023/12/17 09:23:54;;;;;;;11.50;9.17;;;;;;;;;;5013319;28;20455;-82
2023/12/17 09:26:20;;;;;;;12.00;10.53;;;;;;;;;;5013322;28;20468;-81
2023/12/17 09:28:47;;;;;;;10.50;9.30;;;;;;;;;;5013572;28;20408;-82
2023/12/17 09:31:16;;;;;;;11.67;8.23;;;;;;;;;;4972873;28;20516;-85
2023/12/17 09:33:42;;;;;;;9.23;8.20;;;;;;;;;;5013460;28;20463;-83
2023/12/17 09:36:08;;;;;;;12.57;7.97;;;;;;;;;;5028284;28;21282;-83
2023/12/17 09:38:37;;;;;;;9.57;8.57;;;;;;;;;;5024622;28;20429;-85
2023/12/17 09:41:05;;;;;;;8.20;7.30;;;;;;;;;;5008891;28;20503;-83
2023/12/17 09:43:34;;;;;;;10.50;8.90;;;;;;;;;;4993464;28;20412;-83
2023/12/17 09:46:00;;;;;;;12.80;8.97;;;;;;;;;;5008762;28;20431;-82
2023/12/17 09:48:29;;;;;;;9.80;8.47;;;;;;;;;;4993492;28;20466;-81
2023/12/17 09:50:55;;;;;;;10.30;8.93;;;;;;;;;;4993181;28;20432;-81
2023/12/17 09:53:22;;;;;;;11.87;8.20;;;;;;;;;;4993488;28;20472;-81
2023/12/17 09:55:48;;;;;;;10.50;9.47;;;;;;;;;;4993591;28;20449;-81
2023/12/17 09:58:14;;;;;;;9.40;7.93;;;;;;;;;;5008772;28;20791;-81
2023/12/17 10:00:42;;;;;;;11.80;8.90;;;;;;;;;;5008647;28;20453;-81
2023/12/17 10:03:12;;;;;;;10.50;8.97;;;;;;;;;;5013031;28;20407;-81
2023/12/17 10:05:38;;;;;;;11.77;6.93;;;;;;;;;;5012288;28;20783;-81
2023/12/17 10:08:04;;;;;;;9.67;8.57;;;;;;;;;;5012771;28;20885;-81
2023/12/17 10:10:30;;;;;;;8.80;7.90;;;;;;;;;;5028248;28;20466;-81
2023/12/17 10:12:59;;;;;;;7.30;6.60;;;;;;;;;;5013077;28;20427;-82
2023/12/17 10:15:25;;;;;;;13.13;7.63;;;;;;;;;;5013044;28;20920;-81
2023/12/17 10:17:51;;;;;;;10.17;7.93;;;;;;;;;;5028073;28;20424;-81
2023/12/17 10:20:18;;;;;;;7.03;5.60;;;;;;;;;;5028003;28;20522;-81
2023/12/17 10:23:02;;;;;;;7.03;5.40;;;;;;;;;;5012593;28;20412;-81
2023/12/17 10:25:31;;;;;;;9.00;5.80;;;;;;;;;;5012597;28;20871;-81
2023/12/17 10:27:58;;;;;;;9.53;6.07;;;;;;;;;;5012865;28;20408;-81
2023/12/17 10:30:34;;;;;;;10.37;6.07;;;;;;;;;;5012851;28;20404;-81
2023/12/17 10:33:00;;;;;;;7.80;6.93;;;;;;;;;;5012812;28;20410;-80
2023/12/17 10:35:27;;;;;;;7.87;6.47;;;;;;;;;;5011586;28;20483;-82
2023/12/17 10:37:54;;;;;;;8.77;6.80;;;;;;;;;;5027587;28;20420;-81
2023/12/17 10:40:21;;;;;;;8.60;6.90;;;;;;;;;;5012806;28;20424;-81
2023/12/17 10:42:48;;;;;;;8.83;5.57;;;;;;;;;;5027968;28;20989;-81
2023/12/17 10:45:16;;;;;;;8.20;7.40;;;;;;;;;;5012816;28;20465;-81
2023/12/17 10:47:42;;;;;;;7.90;7.10;;;;;;;;;;5012793;28;20406;-81
2023/12/17 10:50:08;;;;;;;10.23;7.00;;;;;;;;;;5031530;28;20575;-81
2023/12/17 10:52:34;;;;;;;7.53;6.63;;;;;;;;;;5015907;28;20515;-81
2023/12/17 10:55:00;;;;;;;7.50;6.80;;;;;;;;;;5031538;28;20436;-81
2023/12/17 10:57:27;;;;;;;9.40;7.57;;;;;;;;;;5016158;28;20475;-81
2023/12/17 10:59:54;;;;;;;10.17;7.23;;;;;;;;;;5016089;28;20934;-81
2023/12/17 11:02:22;;;;;;;9.17;6.87;;;;;;;;;;5016027;28;20789;-81
2023/12/17 11:04:48;;;;;;;7.83;6.60;;;;;;;;;;5015868;28;20844;-81
2023/12/17 11:07:21;;;;;;;9.10;6.47;;;;;;;;;;5015681;28;20412;-81
2023/12/17 11:09:47;;;;;;;8.00;7.10;;;;;;;;;;5015910;28;20462;-81
2023/12/17 11:12:13;;;;;;;7.10;6.50;;;;;;;;;;5015830;28;20473;-82
2023/12/17 11:14:42;;;;;;;8.27;6.83;;;;;;;;;;5015753;28;20411;-81
2023/12/17 11:17:12;;;;;;;10.07;7.30;;;;;;;;;;5015711;28;20424;-81
2023/12/17 11:19:53;;;;;;;6.83;6.10;;;;;;;;;;5015658;28;20418;-81
2023/12/17 11:22:21;;;;;;;7.63;6.00;;;;;;;;;;5015383;28;20928;-81
2023/12/17 11:24:47;;;;;;;9.60;5.30;;;;;;;;;;5015521;28;20752;-81
2023/12/17 11:27:13;;;;;;;9.10;5.97;;;;;;;;;;5015484;28;20455;-82
2023/12/17 11:29:40;;;;;;;8.03;5.03;;;;;;;;;;5015538;28;20982;-81
2023/12/17 11:32:06;;;;;;;5.73;4.87;;;;;;;;;;5015417;28;20504;-81
2023/12/17 11:34:33;;;;;;;6.47;5.20;;;;;;;;;;5015458;28;20511;-82
2023/12/17 11:36:59;;;;;;;6.93;4.87;;;;;;;;;;5015125;28;20404;-82
2023/12/17 11:39:27;;;;;;;7.27;4.30;;;;;;;;;;5015360;28;20430;-81
2023/12/17 11:41:53;;;;;;;7.10;4.13;;;;;;;;;;5015263;28;20912;-81
2023/12/17 11:44:19;;;;;;;8.43;4.00;;;;;;;;;;5015143;28;20462;-82
2023/12/17 11:46:48;;;;;;;6.40;3.60;;;;;;;;;;5015193;28;20185;-81
2023/12/17 11:49:23;;;;;;;10.67;4.50;;;;;;;;;;5015139;28;20770;-81
2023/12/17 11:51:50;;;;;;;5.20;4.70;;;;;;;;;;5014824;28;20397;-81
2023/12/17 11:54:19;;;;;;;5.60;4.80;;;;;;;;;;5014992;28;20433;-82
2023/12/17 11:56:47;;;;;;;7.50;3.90;;;;;;;;;;5014921;28;20750;-82
2023/12/17 11:59:13;;;;;;;6.60;3.80;;;;;;;;;;5014487;28;20410;-81
2023/12/17 12:01:39;;;;;;;6.63;4.73;;;;;;;;;;5014772;28;20421;-82
2023/12/17 12:04:05;;;;;;;6.20;4.13;;;;;;;;;;5014858;28;20214;-81
2023/12/17 12:06:31;;;;;;;6.03;4.13;;;;;;;;;;5014533;28;20930;-82
2023/12/17 12:08:59;;;;;;;6.50;3.20;;;;;;;;;;5014734;28;20450;-81
2023/12/17 12:11:30;;;;;;;6.23;4.00;;;;;;;;;;5014805;28;20407;-82
2023/12/17 12:13:59;;;;;;;6.07;3.67;;;;;;;;;;5014782;28;20417;-81
2023/12/17 12:16:25;;;;;;;9.57;3.83;;;;;;;;;;5014707;28;20411;-82
2023/12/17 12:19:02;;;;;;;4.50;3.93;;;;;;;;;;5014581;28;20420;-81
2023/12/17 12:21:28;;;;;;;5.40;3.50;;;;;;;;;;5014225;28;20420;-82
2023/12/17 12:23:55;;;;;;;6.57;4.33;;;;;;;;;;5014438;28;20553;-81
2023/12/17 12:26:24;;;;;;;6.70;4.97;;;;;;;;;;5014334;28;20501;-82
2023/12/17 12:29:00;;;;;;;7.80;5.53;;;;;;;;;;5014293;28;20420;-82
2023/12/17 12:31:27;;;;;;;10.00;5.37;;;;;;;;;;5014372;28;20417;-81
2023/12/17 12:33:54;;;;;;;7.40;5.03;;;;;;;;;;5029361;28;20971;-82
2023/12/17 12:36:20;;;;;;;5.97;4.47;;;;;;;;;;5013782;28;20422;-81
2023/12/17 12:38:46;;;;;;;10.27;6.40;;;;;;;;;;5014164;28;20419;-82
2023/12/17 12:41:12;;;;;;;8.93;5.40;;;;;;;;;;5014281;28;20528;-82
2023/12/17 12:43:40;;;;;;;9.90;6.70;;;;;;;;;;5014077;28;20772;-82
2023/12/17 12:46:06;;;;;;;8.77;5.90;;;;;;;;;;5014048;28;20425;-82
2023/12/17 12:48:32;;;;;;;8.80;5.90;;;;;;;;;;5014120;28;20906;-82
2023/12/17 12:50:58;;;;;;;11.70;5.93;;;;;;;;;;5013727;28;20424;-82
2023/12/17 12:53:24;;;;;;;9.93;7.07;;;;;;;;;;4972474;28;20928;-82
2023/12/17 12:55:50;;;;;;;13.37;7.63;;;;;;;;;;5014024;28;20421;-82
2023/12/17 12:58:17;;;;;;;10.10;7.40;;;;;;;;;;5013913;28;20412;-81
2023/12/17 13:00:43;;;;;;;9.97;7.43;;;;;;;;;;5013967;28;20173;-82
2023/12/17 13:03:12;;;;;;;8.93;5.60;;;;;;;;;;5029007;28;20490;-82
2023/12/17 13:05:38;;;;;;;12.83;7.67;;;;;;;;;;5013356;28;20471;-82
2023/12/17 13:08:07;;;;;;;13.57;8.33;;;;;;;;;;5013696;28;20414;-81
2023/12/17 13:10:33;;;;;;;13.50;7.80;;;;;;;;;;5013527;28;20428;-83
2023/12/17 13:12:59;;;;;;;11.50;7.70;;;;;;;;;;5013495;28;20950;-82
2023/12/17 13:15:25;;;;;;;12.90;8.17;;;;;;;;;;5013510;28;20418;-82
2023/12/17 13:17:51;;;;;;;10.77;6.90;;;;;;;;;;5012303;28;20644;-82
2023/12/17 13:20:17;;;;;;;11.90;7.93;;;;;;;;;;5013265;28;21083;-80
2023/12/17 13:22:43;;;;;;;14.80;8.47;;;;;;;;;;5028649;28;20818;-81
2023/12/17 13:25:09;;;;;;;12.50;8.60;;;;;;;;;;5013253;28;20475;-82
2023/12/17 13:27:35;;;;;;;12.67;7.30;;;;;;;;;;5013488;28;20847;-81
2023/12/17 13:30:02;;;;;;;10.57;7.13;;;;;;;;;;5013481;28;20424;-82
2023/12/17 13:32:28;;;;;;;12.70;7.93;;;;;;;;;;5013373;28;20405;-82
2023/12/17 13:34:54;;;;;;;11.27;7.50;;;;;;;;;;5013533;28;20526;-80
2023/12/17 13:37:20;;;;;;;11.67;7.83;;;;;;;;;;5013141;28;20413;-82
2023/12/17 13:39:46;;;;;;;9.97;7.63;;;;;;;;;;5013315;28;20521;-82
2023/12/17 13:42:14;;;;;;;9.13;6.93;;;;;;;;;;5013226;28;20511;-81
2023/12/17 13:44:40;;;;;;;14.47;9.83;;;;;;;;;;5012978;28;20209;-82
2023/12/17 13:47:06;;;;;;;12.30;8.13;;;;;;;;;;5013034;28;20406;-82
2023/12/17 13:49:35;;;;;;;9.67;7.23;;;;;;;;;;5013073;28;20456;-82
2023/12/17 13:52:02;;;;;;;11.40;8.20;;;;;;;;;;5012587;28;20408;-82
2023/12/17 13:54:28;;;;;;;13.00;7.90;;;;;;;;;;5013051;28;20479;-82
2023/12/17 13:56:55;;;;;;;13.23;7.47;;;;;;;;;;5013101;28;20483;-81
2023/12/17 13:59:23;;;;;;;11.40;7.70;;;;;;;;;;5013008;28;20409;-82
2023/12/17 14:01:49;;;;;;;12.13;8.40;;;;;;;;;;5012917;28;20413;-82
2023/12/17 14:04:15;;;;;;;13.73;8.10;;;;;;;;;;5012929;28;20958;-81
2023/12/17 14:06:41;;;;;;;12.50;7.60;;;;;;;;;;5012680;28;20550;-82
2023/12/17 14:09:07;;;;;;;9.73;6.70;;;;;;;;;;5013140;28;20944;-84
2023/12/17 14:11:33;;;;;;;10.77;7.07;;;;;;;;;;5012973;28;20407;-83
2023/12/17 14:13:59;;;;;;;11.10;7.27;;;;;;;;;;5013019;28;20403;-83
2023/12/17 14:16:29;;;;;;;12.03;7.40;;;;;;;;;;5013065;28;20891;-84
2023/12/17 14:18:55;;;;;;;10.53;8.13;;;;;;;;;;5012972;28;20175;-83
2023/12/17 14:21:21;;;;;;;10.93;7.90;;;;;;;;;;5012744;28;20413;-84
2023/12/17 14:23:54;;;;;;;11.37;7.30;;;;;;;;;;5030014;28;20527;-83
2023/12/17 14:26:20;;;;;;;10.70;6.37;;;;;;;;;;5016617;28;20606;-83
2023/12/17 14:28:46;;;;;;;13.50;8.33;;;;;;;;;;5031780;28;20527;-83
2023/12/17 14:31:13;;;;;;;12.10;9.10;;;;;;;;;;5016535;28;20417;-84
2023/12/17 14:33:39;;;;;;;13.10;8.27;;;;;;;;;;5016555;28;20446;-83